Time;durP1;ratioP1;P1;durP2;ratioP2;P2;SDS_P1;SDS_P2;PMS_P1;PMS_P2;Temp;Humidity;BMP_temperature;BMP_pressure;BME280_temperature;BME280_humidity;BME280_pressure;Samples;Min_cycle;Max_cycle;Signal;HPM_P1;HPM_P2
2023/05/18 00:01:13;;;;;;;8.32;2.45;;;;;;;10.01;55.10;102927.59;7393197;19;20410;-48
2023/05/18 00:03:40;;;;;;;10.43;2.67;;;;;;;9.90;55.41;102926.28;7391095;19;20019;-49
2023/05/18 00:06:08;;;;;;;13.52;2.90;;;;;;;10.01;55.42;102932.03;7392156;19;20029;-47
2023/05/18 00:08:37;;;;;;;12.07;2.30;;;;;;;10.09;54.92;102927.31;7391944;19;20353;-49
2023/05/18 00:11:05;;;;;;;9.32;2.40;;;;;;;10.14;54.84;102935.09;7392709;19;20831;-51
2023/05/18 00:13:32;;;;;;;9.98;2.13;;;;;;;10.14;55.48;102929.78;7390483;19;20018;-49
2023/05/18 00:15:59;;;;;;;8.75;2.40;;;;;;;10.14;55.96;102935.94;7391662;19;20018;-47
2023/05/18 00:18:27;;;;;;;9.70;2.15;;;;;;;10.13;55.44;102933.38;7391548;19;20103;-49
2023/05/18 00:21:00;;;;;;;12.15;2.35;;;;;;;9.94;56.28;102934.03;7391088;19;20018;-47
2023/05/18 00:23:29;;;;;;;10.68;2.25;;;;;;;10.01;56.47;102932.91;7390729;19;20023;-50
2023/05/18 00:25:58;;;;;;;9.80;2.42;;;;;;;10.08;56.24;102943.28;7391544;19;20022;-48
2023/05/18 00:28:25;;;;;;;12.57;2.80;;;;;;;10.10;55.77;102936.97;7388482;19;20020;-49
2023/05/18 00:30:53;;;;;;;12.15;2.63;;;;;;;10.10;55.75;102938.78;7390528;19;20525;-50
2023/05/18 00:33:21;;;;;;;9.25;2.30;;;;;;;10.10;55.80;102946.72;7391022;19;20010;-52
2023/05/18 00:35:48;;;;;;;9.40;2.42;;;;;;;10.04;55.84;102937.22;7390650;19;20507;-51
2023/05/18 00:38:15;;;;;;;10.10;2.17;;;;;;;10.07;55.68;102939.75;7391160;19;20014;-52
2023/05/18 00:40:43;;;;;;;8.88;2.17;;;;;;;10.12;55.63;102932.50;7391282;19;20018;-50
2023/05/18 00:43:10;;;;;;;9.30;2.42;;;;;;;10.10;55.63;102936.13;7390311;19;20039;-52
2023/05/18 00:45:37;;;;;;;14.43;2.72;;;;;;;10.05;55.98;102935.44;7391433;19;20019;-52
2023/05/18 00:48:05;;;;;;;9.35;2.28;;;;;;;9.69;57.32;102942.00;7390720;19;20019;-52
2023/05/18 00:50:32;;;;;;;10.68;2.35;;;;;;;9.87;57.02;102942.25;7390420;19;20027;-51
2023/05/18 00:52:59;;;;;;;10.45;2.67;;;;;;;9.98;56.63;102935.66;7390060;19;20011;-51
2023/05/18 00:55:27;;;;;;;9.18;2.55;;;;;;;9.66;57.61;102942.09;7390975;19;20022;-52
2023/05/18 00:57:55;;;;;;;11.38;3.08;;;;;;;9.87;57.71;102940.47;7391015;19;20007;-51
2023/05/18 01:00:23;;;;;;;11.05;3.33;;;;;;;9.91;58.28;102942.06;7389792;19;20488;-49
2023/05/18 01:02:51;;;;;;;13.40;3.20;;;;;;;9.96;58.33;102940.16;7388725;19;20023;-51
2023/05/18 01:05:20;;;;;;;9.57;2.83;;;;;;;9.88;58.39;102936.03;7390113;19;20022;-50
2023/05/18 01:07:49;;;;;;;9.38;2.42;;;;;;;9.94;57.93;102936.69;7389928;19;20039;-50
2023/05/18 01:10:18;;;;;;;9.85;2.75;;;;;;;9.91;57.91;102939.44;7389883;19;20022;-48
2023/05/18 01:13:11;;;;;;;9.77;2.55;;;;;;;10.07;57.17;102938.88;7390140;19;20025;-46
2023/05/18 01:15:40;;;;;;;10.02;2.30;;;;;;;10.05;57.42;102938.09;7388758;19;20487;-52
2023/05/18 01:18:16;;;;;;;13.10;2.65;;;;;;;9.76;57.93;102939.97;7388333;19;20029;-47
2023/05/18 01:20:56;;;;;;;10.27;2.22;;;;;;;9.79;58.03;102939.00;7388276;19;20070;-50
2023/05/18 01:23:52;;;;;;;14.63;2.47;;;;;;;9.87;57.24;102937.81;7389453;19;20022;-49
2023/05/18 01:26:30;;;;;;;9.43;2.38;;;;;;;9.90;57.60;102947.44;7397822;19;20018;-53
2023/05/18 01:29:00;;;;;;;11.40;3.05;;;;;;;9.93;57.66;102945.56;7396909;19;20022;-53
2023/05/18 01:31:28;;;;;;;9.60;3.35;;;;;;;9.79;58.31;102939.88;7397695;19;20023;-48
2023/05/18 01:33:56;;;;;;;10.93;2.88;;;;;;;9.65;58.95;102945.63;7394090;19;20090;-48
2023/05/18 01:36:23;;;;;;;11.30;2.75;;;;;;;9.81;58.95;102943.34;7397136;19;20022;-46
2023/05/18 01:38:51;;;;;;;8.30;2.50;;;;;;;9.92;57.96;102950.88;7396404;19;20014;-48
2023/05/18 01:41:24;;;;;;;11.65;3.00;;;;;;;9.84;57.55;102951.16;7397281;19;20020;-48
2023/05/18 01:44:16;;;;;;;11.60;3.30;;;;;;;9.72;58.51;102947.16;7395365;19;20051;-50
2023/05/18 01:46:55;;;;;;;9.57;3.28;;;;;;;9.82;58.28;102945.06;7395198;19;20018;-48
2023/05/18 01:49:52;;;;;;;9.75;2.85;;;;;;;9.78;58.21;102948.75;7396380;19;20118;-46
2023/05/18 01:52:28;;;;;;;10.18;3.40;;;;;;;9.87;58.17;102947.53;7395389;19;20018;-48
2023/05/18 01:54:59;;;;;;;11.00;3.38;;;;;;;9.88;58.25;102950.16;7396445;19;20035;-51
2023/05/18 01:57:30;;;;;;;11.30;3.75;;;;;;;9.93;58.18;102950.84;7396905;19;20015;-49
2023/05/18 02:00:01;;;;;;;8.85;3.30;;;;;;;10.02;58.08;102955.78;7396028;19;20385;-49
2023/05/18 02:02:28;;;;;;;12.65;3.38;;;;;;;9.95;58.13;102946.34;7396009;19;20126;-48
2023/05/18 02:04:55;;;;;;;12.98;3.28;;;;;;;9.99;57.69;102947.97;7394653;19;20090;-48
2023/05/18 02:07:22;;;;;;;9.70;2.60;;;;;;;9.97;57.37;102952.47;7395145;19;20015;-49
2023/05/18 02:09:50;;;;;;;11.75;2.83;;;;;;;9.97;57.80;102952.47;7393945;19;20040;-48
2023/05/18 02:12:17;;;;;;;10.93;3.03;;;;;;;9.96;57.59;102948.09;7395591;19;20015;-48
2023/05/18 02:14:44;;;;;;;8.88;2.70;;;;;;;9.93;57.62;102944.69;7395996;19;20022;-47
2023/05/18 02:17:11;;;;;;;9.85;2.92;;;;;;;9.95;58.48;102945.47;7396175;19;20099;-47
2023/05/18 02:19:38;;;;;;;9.80;3.25;;;;;;;9.85;58.22;102941.47;7394091;19;20116;-47
2023/05/18 02:22:07;;;;;;;11.00;2.85;;;;;;;9.66;59.62;102949.16;7393886;19;20031;-48
2023/05/18 02:24:34;;;;;;;11.68;3.45;;;;;;;9.42;60.08;102949.06;7395828;19;20022;-47
2023/05/18 02:27:01;;;;;;;16.63;3.17;;;;;;;9.43;60.14;102948.16;7395594;19;20133;-49
2023/05/18 02:29:28;;;;;;;13.82;3.30;;;;;;;9.66;59.29;102946.53;7394820;19;20022;-49
2023/05/18 02:31:55;;;;;;;12.20;3.00;;;;;;;9.85;58.68;102946.75;7396000;19;20022;-48
2023/05/18 02:34:23;;;;;;;10.30;2.90;;;;;;;9.78;58.75;102943.44;7396279;19;20019;-48
2023/05/18 02:36:50;;;;;;;9.43;3.08;;;;;;;9.48;58.39;102954.16;7393186;19;20090;-51
2023/05/18 02:39:17;;;;;;;9.55;2.55;;;;;;;9.48;58.69;102948.00;7395179;19;20018;-49
2023/05/18 02:41:45;;;;;;;10.13;2.50;;;;;;;9.44;58.59;102949.88;7395553;19;20025;-48
2023/05/18 02:44:12;;;;;;;10.55;2.72;;;;;;;9.71;58.15;102949.88;7392784;19;20019;-48
2023/05/18 02:46:39;;;;;;;11.07;2.53;;;;;;;9.58;58.15;102948.53;7394700;19;20010;-50
2023/05/18 02:49:06;;;;;;;12.45;3.10;;;;;;;9.44;58.10;102943.75;7391771;19;20082;-47
2023/05/18 02:51:33;;;;;;;9.93;2.58;;;;;;;9.52;58.36;102945.19;7394919;19;20030;-48
2023/05/18 02:54:00;;;;;;;10.32;2.90;;;;;;;9.57;57.37;102933.59;7392530;19;20022;-47
2023/05/18 02:56:27;;;;;;;12.45;2.70;;;;;;;9.70;57.78;102949.00;7392760;19;20539;-45
2023/05/18 02:58:56;;;;;;;11.95;2.67;;;;;;;9.84;56.84;102947.66;7394237;19;20033;-46
2023/05/18 03:01:25;;;;;;;10.32;2.45;;;;;;;9.94;56.53;102949.91;7395159;19;20025;-50
2023/05/18 03:03:56;;;;;;;11.32;2.40;;;;;;;10.01;56.62;102953.22;7393606;19;20058;-49
2023/05/18 03:06:25;;;;;;;10.30;2.53;;;;;;;9.96;56.65;102948.09;7393377;19;20014;-49
2023/05/18 03:08:55;;;;;;;7.63;2.25;;;;;;;9.83;56.77;102943.28;7390748;19;20046;-48
2023/05/18 03:11:23;;;;;;;12.40;2.10;;;;;;;9.77;57.01;102949.66;7392925;19;20026;-45
2023/05/18 03:13:50;;;;;;;10.52;2.30;;;;;;;9.79;57.44;102949.59;7394090;19;20022;-46
2023/05/18 03:16:17;;;;;;;10.65;2.30;;;;;;;9.86;57.43;102951.97;7393804;19;20015;-48
2023/05/18 03:18:45;;;;;;;8.05;2.20;;;;;;;9.91;57.48;102954.44;7394035;19;20330;-48
2023/05/18 03:21:12;;;;;;;10.90;2.55;;;;;;;9.75;58.01;102959.41;7394809;19;20031;-45
2023/05/18 03:23:39;;;;;;;8.80;2.47;;;;;;;9.76;58.43;102963.78;7391518;19;20025;-45
2023/05/18 03:26:10;;;;;;;9.32;2.20;;;;;;;9.79;58.53;102963.69;7393647;19;20021;-45
2023/05/18 03:28:38;;;;;;;7.57;2.00;;;;;;;9.52;58.69;102961.06;7391515;19;20054;-46
2023/05/18 03:31:05;;;;;;;11.45;2.72;;;;;;;9.61;59.10;102966.97;7391876;19;20025;-46
2023/05/18 03:33:32;;;;;;;8.57;2.10;;;;;;;9.59;58.44;102964.38;7391770;19;20051;-46
2023/05/18 03:36:02;;;;;;;10.38;2.72;;;;;;;9.68;59.22;102964.06;7391951;19;20040;-45
2023/05/18 03:38:29;;;;;;;6.63;1.80;;;;;;;9.84;58.75;102956.44;7393256;19;20010;-46
2023/05/18 03:40:57;;;;;;;8.70;2.25;;;;;;;9.95;57.52;102956.94;7391806;19;20018;-45
2023/05/18 03:43:24;;;;;;;11.25;2.30;;;;;;;9.95;57.02;102962.22;7392781;19;20640;-46
2023/05/18 03:45:52;;;;;;;10.23;2.60;;;;;;;9.96;56.67;102960.47;7393213;19;20011;-47
2023/05/18 03:48:20;;;;;;;10.77;2.70;;;;;;;9.79;57.42;102968.97;7389723;19;20018;-45
2023/05/18 03:50:47;;;;;;;10.95;2.50;;;;;;;9.87;57.39;102968.72;7391382;19;20025;-45
2023/05/18 03:53:17;;;;;;;11.60;2.75;;;;;;;9.94;57.70;102970.22;7392753;19;20086;-46
2023/05/18 03:55:45;;;;;;;9.77;2.67;;;;;;;9.87;58.26;102971.34;7389032;19;20491;-47
2023/05/18 03:58:13;;;;;;;11.27;3.25;;;;;;;9.83;58.21;102969.75;7391751;19;20046;-45
2023/05/18 04:00:41;;;;;;;9.50;2.83;;;;;;;9.78;58.65;102975.19;7391498;19;20014;-49
2023/05/18 04:03:14;;;;;;;12.20;3.45;;;;;;;9.83;57.97;102970.59;7391845;19;20011;-48
2023/05/18 04:05:44;;;;;;;11.25;3.80;;;;;;;9.87;58.38;102977.50;7392883;19;20515;-47
2023/05/18 04:08:13;;;;;;;12.55;3.53;;;;;;;9.90;58.72;102974.75;7391904;19;20018;-46
2023/05/18 04:10:44;;;;;;;12.43;2.80;;;;;;;10.01;58.52;102980.53;7390775;19;20015;-47
2023/05/18 04:13:11;;;;;;;9.50;3.22;;;;;;;10.10;58.43;102975.84;7390983;19;20125;-47
2023/05/18 04:15:38;;;;;;;12.77;3.00;;;;;;;10.18;58.08;102976.41;7392268;19;20007;-48
2023/05/18 04:18:06;;;;;;;10.55;3.20;;;;;;;10.18;57.64;102982.56;7392686;19;20042;-47
2023/05/18 04:20:34;;;;;;;10.07;2.42;;;;;;;10.12;57.23;102984.59;7391764;19;20354;-46
2023/05/18 04:23:02;;;;;;;6.78;2.38;;;;;;;10.07;57.88;102984.75;7392272;19;20017;-46
2023/05/18 04:25:30;;;;;;;12.90;2.78;;;;;;;10.06;57.64;102988.31;7391861;19;20444;-47
2023/05/18 04:27:57;;;;;;;10.15;2.63;;;;;;;10.11;57.46;102983.75;7391557;19;20011;-46
2023/05/18 04:30:26;;;;;;;9.48;2.33;;;;;;;10.22;57.64;102996.56;7391142;19;20019;-47
2023/05/18 04:32:53;;;;;;;9.48;2.00;;;;;;;10.25;57.27;102991.19;7391684;19;20026;-47
2023/05/18 04:35:20;;;;;;;11.80;2.20;;;;;;;10.24;56.84;102998.25;7391427;19;20042;-47
2023/05/18 04:37:47;;;;;;;12.13;2.40;;;;;;;10.27;55.53;103001.75;7391599;19;20491;-46
2023/05/18 04:40:17;;;;;;;8.52;1.85;;;;;;;10.37;55.34;103008.44;7390623;19;20029;-46
2023/05/18 04:42:46;;;;;;;10.40;2.33;;;;;;;10.36;55.11;103007.56;7390986;19;20022;-45
2023/05/18 04:45:16;;;;;;;10.70;2.13;;;;;;;10.37;54.62;103011.06;7391143;19;20025;-47
2023/05/18 04:47:52;;;;;;;9.23;2.08;;;;;;;10.40;54.62;103008.31;7389617;19;20483;-46
2023/05/18 04:50:24;;;;;;;9.65;1.98;;;;;;;10.39;54.39;103006.59;7391023;19;20027;-43
2023/05/18 04:52:51;;;;;;;9.90;1.73;;;;;;;10.41;54.00;103012.69;7390361;19;20026;-47
2023/05/18 04:55:26;;;;;;;9.40;1.90;;;;;;;10.48;54.28;103017.72;7387184;19;20018;-46
2023/05/18 04:57:55;;;;;;;10.23;2.78;;;;;;;10.49;54.32;103016.81;7389370;19;20372;-45
2023/05/18 05:00:24;;;;;;;11.25;2.45;;;;;;;10.59;54.57;103017.31;7388405;19;20025;-46
2023/05/18 05:02:53;;;;;;;12.40;2.40;;;;;;;10.60;54.49;103023.47;7390122;19;20010;-45
2023/05/18 05:05:21;;;;;;;9.30;1.95;;;;;;;10.53;54.42;103022.88;7388958;19;20459;-46
2023/05/18 05:07:52;;;;;;;7.85;2.15;;;;;;;10.54;54.35;103021.06;7388506;19;20010;-45
2023/05/18 05:10:20;;;;;;;10.23;1.95;;;;;;;10.55;54.58;103022.78;7390387;19;20530;-46
2023/05/18 05:12:49;;;;;;;8.95;1.85;;;;;;;10.53;54.42;103022.88;7390265;19;20026;-45
2023/05/18 05:15:17;;;;;;;8.13;2.03;;;;;;;10.50;54.07;103020.31;7390487;19;20029;-46
2023/05/18 05:17:48;;;;;;;9.27;2.05;;;;;;;10.57;53.73;103026.22;7391028;19;20138;-47
2023/05/18 05:20:15;;;;;;;13.75;2.10;;;;;;;10.65;53.92;103029.47;7388434;19;20030;-45
2023/05/18 05:22:43;;;;;;;12.60;3.05;;;;;;;10.65;53.21;103025.03;7388454;19;20074;-48
2023/05/18 05:25:10;;;;;;;11.40;3.20;;;;;;;10.69;52.14;103031.09;7389720;19;20025;-47
2023/05/18 05:27:37;;;;;;;13.18;3.17;;;;;;;10.80;52.57;103026.25;7388144;19;20047;-45
2023/05/18 05:30:05;;;;;;;9.43;2.45;;;;;;;10.76;52.26;103031.72;7390288;19;20023;-45
2023/05/18 05:32:32;;;;;;;9.02;2.10;;;;;;;10.71;52.19;103029.22;7388049;19;20018;-47
2023/05/18 05:34:59;;;;;;;14.07;2.45;;;;;;;10.77;52.15;103036.09;7389071;19;20480;-45
2023/05/18 05:37:27;;;;;;;10.32;2.30;;;;;;;10.82;52.28;103031.50;7388437;19;20042;-45
2023/05/18 05:39:55;;;;;;;9.93;2.10;;;;;;;10.80;52.38;103035.97;7390165;19;20021;-44
2023/05/18 05:42:24;;;;;;;7.53;1.92;;;;;;;10.92;52.56;103039.03;7390328;19;20056;-45
2023/05/18 05:44:51;;;;;;;8.55;2.00;;;;;;;10.95;51.64;103038.91;7389193;19;20079;-44
2023/05/18 05:47:18;;;;;;;7.70;2.10;;;;;;;10.97;50.51;103033.56;7388377;19;20011;-45
2023/05/18 05:49:45;;;;;;;9.23;2.05;;;;;;;11.03;49.89;103035.09;7387395;19;20022;-46
2023/05/18 05:52:12;;;;;;;7.55;1.80;;;;;;;11.02;49.38;103033.38;7389711;19;20123;-45
2023/05/18 05:54:40;;;;;;;7.43;1.90;;;;;;;11.04;49.09;103037.69;7386664;19;20014;-46
2023/05/18 05:57:10;;;;;;;6.50;1.60;;;;;;;11.12;48.84;103032.94;7389417;19;20010;-45
2023/05/18 05:59:37;;;;;;;10.25;2.10;;;;;;;11.12;48.35;103030.31;7392062;19;20026;-45
2023/05/18 06:02:04;;;;;;;9.32;1.70;;;;;;;11.18;48.49;103037.13;7389447;19;20023;-46
2023/05/18 06:04:31;;;;;;;7.85;1.98;;;;;;;11.18;47.82;103037.13;7386915;19;20043;-44
2023/05/18 06:06:58;;;;;;;9.07;1.92;;;;;;;11.33;48.34;103036.56;7389017;19;20014;-46
2023/05/18 06:09:25;;;;;;;10.20;1.92;;;;;;;11.39;47.75;103043.38;7387037;19;20022;-45
2023/05/18 06:11:53;;;;;;;9.30;2.35;;;;;;;11.30;47.60;103039.31;7396191;19;20515;-45
2023/05/18 06:14:20;;;;;;;6.40;2.10;;;;;;;11.28;47.52;103043.81;7394308;19;20115;-44
2023/05/18 06:16:47;;;;;;;9.57;2.30;;;;;;;11.37;48.01;103046.13;7395745;19;20513;-45
2023/05/18 06:19:14;;;;;;;7.57;1.90;;;;;;;11.38;47.68;103044.31;7394045;19;20039;-45
2023/05/18 06:21:41;;;;;;;8.88;2.20;;;;;;;11.40;47.57;103047.75;7396262;19;20032;-46
2023/05/18 06:24:08;;;;;;;9.10;2.05;;;;;;;11.33;48.04;103047.16;7392407;19;20358;-45
2023/05/18 06:26:35;;;;;;;11.60;2.10;;;;;;;11.37;47.56;103051.44;7395386;19;20014;-45
2023/05/18 06:29:04;;;;;;;10.75;2.13;;;;;;;11.40;47.53;103047.75;7393591;19;20043;-45
2023/05/18 06:31:31;;;;;;;7.90;2.30;;;;;;;11.45;48.21;103051.97;7395975;19;20060;-45
2023/05/18 06:33:58;;;;;;;8.77;2.20;;;;;;;11.51;47.71;103047.34;7392432;19;20038;-44
2023/05/18 06:36:25;;;;;;;5.78;1.88;;;;;;;11.56;47.37;103055.97;7394874;19;20532;-45
2023/05/18 06:38:52;;;;;;;9.57;2.00;;;;;;;11.62;47.22;103063.69;7394991;19;20010;-45
2023/05/18 06:41:21;;;;;;;8.55;2.20;;;;;;;11.50;47.42;103057.09;7395374;19;20022;-49
2023/05/18 06:43:49;;;;;;;8.52;2.30;;;;;;;11.50;46.98;103061.53;7392418;19;20034;-46
2023/05/18 06:46:21;;;;;;;9.60;2.03;;;;;;;11.51;46.87;103066.78;7394816;19;20106;-45
2023/05/18 06:48:48;;;;;;;9.40;2.05;;;;;;;11.56;46.62;103064.81;7392683;19;20090;-45
2023/05/18 06:51:15;;;;;;;8.80;2.08;;;;;;;11.68;46.87;103069.59;7395842;19;20014;-45
2023/05/18 06:53:42;;;;;;;10.63;2.30;;;;;;;11.64;47.46;103062.69;7391679;19;20480;-46
2023/05/18 06:56:12;;;;;;;8.45;2.22;;;;;;;11.68;46.98;103066.09;7394627;19;20018;-44
2023/05/18 06:58:40;;;;;;;12.48;2.00;;;;;;;11.73;46.72;103068.56;7392837;19;20379;-45
2023/05/18 07:01:08;;;;;;;8.20;1.92;;;;;;;11.67;47.08;103067.00;7395302;19;20015;-44
2023/05/18 07:03:36;;;;;;;10.10;2.30;;;;;;;11.68;47.01;103063.44;7393369;19;20025;-45
2023/05/18 07:06:04;;;;;;;8.55;2.30;;;;;;;11.75;46.93;103061.38;7394692;19;20018;-44
2023/05/18 07:08:31;;;;;;;8.18;2.42;;;;;;;11.82;46.99;103070.81;7394219;19;20063;-44
2023/05/18 07:11:01;;;;;;;8.95;1.98;;;;;;;11.85;46.83;103071.59;7394216;19;20051;-45
2023/05/18 07:13:28;;;;;;;7.10;2.10;;;;;;;11.87;46.23;103061.78;7393091;19;20483;-47
2023/05/18 07:15:56;;;;;;;8.75;1.80;;;;;;;11.86;46.71;103067.13;7393977;19;20511;-46
2023/05/18 07:18:23;;;;;;;11.25;1.90;;;;;;;11.92;46.51;103066.88;7393219;19;20491;-46
2023/05/18 07:20:50;;;;;;;9.75;2.20;;;;;;;11.95;46.36;103066.78;7394632;19;20046;-46
2023/05/18 07:23:18;;;;;;;9.35;2.20;;;;;;;11.99;46.12;103070.16;7389779;19;20018;-45
2023/05/18 07:25:45;;;;;;;8.45;2.00;;;;;;;12.12;46.03;103066.91;7393503;19;20039;-45
2023/05/18 07:28:12;;;;;;;10.57;1.98;;;;;;;12.12;45.75;103071.34;7394386;19;20516;-44
2023/05/18 07:30:39;;;;;;;5.78;1.88;;;;;;;12.13;45.69;103068.66;7393349;19;20019;-45
2023/05/18 07:33:06;;;;;;;10.35;2.67;;;;;;;12.16;45.62;103068.47;7393029;19;20018;-45
2023/05/18 07:35:35;;;;;;;6.75;1.92;;;;;;;12.20;45.07;103066.56;7391639;19;20018;-45
2023/05/18 07:38:02;;;;;;;8.13;2.00;;;;;;;12.19;45.54;103070.16;7392199;19;20018;-45
2023/05/18 07:40:29;;;;;;;7.38;1.98;;;;;;;12.17;45.53;103072.91;7392246;19;20010;-46
2023/05/18 07:42:56;;;;;;;7.40;1.95;;;;;;;12.23;44.64;103071.75;7393354;19;20022;-46
2023/05/18 07:45:23;;;;;;;11.88;2.30;;;;;;;12.21;44.73;103070.97;7392957;19;20027;-46
2023/05/18 07:47:51;;;;;;;8.10;2.08;;;;;;;12.15;45.08;103069.44;7391817;19;20503;-47
2023/05/18 07:50:18;;;;;;;7.18;1.80;;;;;;;12.08;45.07;103064.44;7390596;19;20329;-46
2023/05/18 07:52:45;;;;;;;8.25;1.85;;;;;;;12.22;45.20;103064.72;7393318;19;20029;-45
2023/05/18 07:55:12;;;;;;;8.63;2.22;;;;;;;12.27;45.34;103062.72;7392161;19;20057;-45
2023/05/18 07:57:39;;;;;;;8.05;2.03;;;;;;;12.43;44.85;103061.09;7393257;19;20011;-45
2023/05/18 08:00:08;;;;;;;9.80;1.90;;;;;;;12.52;44.95;103057.19;7391676;19;20057;-45
2023/05/18 08:02:36;;;;;;;10.70;2.22;;;;;;;12.53;45.39;103063.38;7391819;19;20014;-45
2023/05/18 08:05:04;;;;;;;9.68;1.88;;;;;;;12.48;45.30;103066.25;7392031;19;20015;-44
2023/05/18 08:07:32;;;;;;;9.20;2.17;;;;;;;12.44;45.77;103067.31;7390790;19;20019;-46
2023/05/18 08:09:59;;;;;;;6.68;1.88;;;;;;;12.46;45.27;103064.56;7390187;19;20022;-46
2023/05/18 08:12:28;;;;;;;8.80;2.35;;;;;;;12.53;45.40;103071.34;7392867;19;20026;-46
2023/05/18 08:14:56;;;;;;;8.85;2.15;;;;;;;12.55;45.21;103067.66;7392545;19;20476;-47
2023/05/18 08:17:23;;;;;;;10.35;2.53;;;;;;;12.59;45.03;103063.97;7385849;19;20483;-47
2023/05/18 08:19:52;;;;;;;7.45;1.90;;;;;;;12.56;45.45;103068.56;7392743;19;20045;-45
2023/05/18 08:22:20;;;;;;;8.15;2.10;;;;;;;12.47;45.04;103071.59;7390358;19;20094;-45
2023/05/18 08:24:47;;;;;;;7.65;2.20;;;;;;;12.40;45.05;103079.88;7391489;19;20018;-46
2023/05/18 08:27:14;;;;;;;7.70;1.73;;;;;;;12.44;44.94;103078.78;7391611;19;20022;-46
2023/05/18 08:29:42;;;;;;;6.00;1.80;;;;;;;12.49;44.92;103073.25;7388884;19;20018;-45
2023/05/18 08:32:09;;;;;;;6.35;1.95;;;;;;;12.64;45.18;103071.72;7390085;19;20045;-45
2023/05/18 08:34:36;;;;;;;9.70;2.45;;;;;;;12.73;44.83;103076.59;7389011;19;20022;-47
2023/05/18 08:37:04;;;;;;;6.35;2.00;;;;;;;12.82;44.57;103068.22;7389682;19;20081;-46
2023/05/18 08:39:31;;;;;;;7.40;1.90;;;;;;;12.97;44.31;103076.41;7390511;19;20021;-45
2023/05/18 08:42:02;;;;;;;7.07;2.20;;;;;;;13.03;43.87;103069.00;7391958;19;20014;-45
2023/05/18 08:44:47;;;;;;;11.75;2.40;;;;;;;13.09;44.17;103076.72;7390659;19;20389;-46
2023/05/18 08:47:16;;;;;;;8.50;2.05;;;;;;;12.97;44.43;103082.59;7389503;19;20021;-44
2023/05/18 08:49:44;;;;;;;9.77;2.40;;;;;;;12.75;44.60;103076.56;7389659;19;20025;-44
2023/05/18 08:52:17;;;;;;;9.05;2.60;;;;;;;12.69;44.61;103080.34;7385893;19;20031;-44
2023/05/18 08:54:47;;;;;;;10.60;2.33;;;;;;;12.63;45.18;103077.94;7391886;19;20372;-44
2023/05/18 08:57:16;;;;;;;8.88;2.13;;;;;;;12.69;45.29;103075.88;7394466;19;20476;-46
2023/05/18 08:59:44;;;;;;;8.65;2.75;;;;;;;12.90;45.51;103082.03;7391526;19;20018;-45
2023/05/18 09:02:12;;;;;;;8.80;2.03;;;;;;;13.12;45.26;103071.22;7394299;19;20361;-46
2023/05/18 09:04:41;;;;;;;8.93;2.05;;;;;;;13.14;45.22;103076.50;7391223;19;20022;-46
2023/05/18 09:07:09;;;;;;;9.10;1.95;;;;;;;13.32;44.09;103074.81;7392760;19;20034;-43
2023/05/18 09:09:38;;;;;;;10.15;2.30;;;;;;;13.46;43.73;103060.81;7389928;19;20022;-52
2023/05/18 09:12:06;;;;;;;8.02;2.42;;;;;;;13.64;43.61;103066.09;7395228;19;20010;-52
2023/05/18 09:14:33;;;;;;;7.97;2.35;;;;;;;13.62;43.52;103065.31;7392347;19;20020;-52
2023/05/18 09:17:00;;;;;;;11.00;2.47;;;;;;;13.67;43.55;103069.56;7394189;19;20022;-50
2023/05/18 09:19:28;;;;;;;8.18;2.05;;;;;;;13.59;43.20;103067.28;7390427;19;20022;-51
2023/05/18 09:21:55;;;;;;;7.68;2.22;;;;;;;13.30;43.61;103061.56;7392108;19;20077;-53
2023/05/18 09:24:22;;;;;;;9.45;2.05;;;;;;;13.04;44.02;103061.91;7393491;19;20042;-52
2023/05/18 09:26:50;;;;;;;9.68;2.40;;;;;;;12.98;44.57;103057.75;7393111;19;20106;-52
2023/05/18 09:29:19;;;;;;;6.28;2.10;;;;;;;12.91;44.73;103058.97;7391104;19;20026;-51
2023/05/18 09:31:47;;;;;;;8.48;2.28;;;;;;;12.84;44.44;103055.72;7392500;19;20022;-52
2023/05/18 09:34:17;;;;;;;11.73;2.22;;;;;;;12.80;44.78;103054.13;7393868;19;20377;-51
2023/05/18 09:36:55;;;;;;;8.77;2.53;;;;;;;12.64;44.77;103050.44;7390594;19;20015;-52
2023/05/18 09:39:22;;;;;;;8.38;2.17;;;;;;;12.64;44.95;103053.97;7390600;19;20026;-53
2023/05/18 09:41:57;;;;;;;11.77;2.33;;;;;;;12.84;44.93;103055.72;7392149;19;20022;-51
2023/05/18 09:44:32;;;;;;;7.68;2.15;;;;;;;12.93;44.97;103043.78;7393407;19;20363;-52
2023/05/18 09:47:01;;;;;;;8.40;2.10;;;;;;;12.98;45.08;103044.44;7399951;19;20078;-51
2023/05/18 09:49:29;;;;;;;8.02;2.40;;;;;;;13.03;44.95;103046.88;7397621;19;20447;-51
2023/05/18 09:51:59;;;;;;;10.75;2.42;;;;;;;12.94;45.14;103042.88;7400471;19;20014;-51
2023/05/18 09:54:26;;;;;;;10.05;2.60;;;;;;;13.04;44.54;103036.16;7399349;19;20038;-52
2023/05/18 09:56:55;;;;;;;9.23;2.33;;;;;;;12.95;44.31;103033.94;7399957;19;20060;-51
2023/05/18 09:59:36;;;;;;;8.35;2.10;;;;;;;13.00;45.15;103031.06;7396924;19;20036;-53
2023/05/18 10:02:04;;;;;;;6.65;2.25;;;;;;;13.22;44.34;103025.56;7399871;19;20043;-50
2023/05/18 10:04:42;;;;;;;11.35;2.42;;;;;;;13.38;43.95;103031.91;7399195;19;20047;-53
2023/05/18 10:07:14;;;;;;;8.38;2.25;;;;;;;13.30;44.02;103026.09;7400371;19;20022;-50
2023/05/18 10:09:45;;;;;;;8.35;2.15;;;;;;;13.28;44.20;103028.84;7394157;19;20073;-53
2023/05/18 10:12:18;;;;;;;10.52;2.97;;;;;;;13.39;44.36;103021.19;7399047;19;20018;-52
2023/05/18 10:14:45;;;;;;;8.68;2.15;;;;;;;13.37;45.03;103023.06;7396718;19;20021;-53
2023/05/18 10:17:14;;;;;;;7.75;2.45;;;;;;;13.39;44.16;103013.22;7398132;19;20076;-52
2023/05/18 10:19:44;;;;;;;9.27;2.30;;;;;;;13.33;43.89;103013.50;7396313;19;20014;-53
2023/05/18 10:22:19;;;;;;;8.98;2.70;;;;;;;13.29;43.89;103014.59;7398509;19;20022;-52
2023/05/18 10:24:50;;;;;;;8.73;2.45;;;;;;;13.44;44.22;103028.94;7396315;19;20031;-53
2023/05/18 10:27:23;;;;;;;10.32;2.78;;;;;;;13.58;44.08;103020.25;7398871;19;20018;-52
2023/05/18 10:29:51;;;;;;;10.00;2.40;;;;;;;13.49;43.70;103016.28;7395404;19;20011;-53
2023/05/18 10:32:21;;;;;;;8.85;2.63;;;;;;;13.39;44.20;103017.66;7399720;19;20022;-52
2023/05/18 10:34:51;;;;;;;8.82;2.67;;;;;;;13.35;43.82;103027.59;7397959;19;20015;-52
2023/05/18 10:37:21;;;;;;;11.88;2.60;;;;;;;13.33;44.62;103018.84;7399314;19;20022;-53
2023/05/18 10:39:54;;;;;;;10.60;2.40;;;;;;;13.38;44.64;103019.47;7396153;19;20022;-53
2023/05/18 10:42:24;;;;;;;9.52;2.60;;;;;;;13.44;44.35;103020.13;7399309;19;20018;-53
2023/05/18 10:44:55;;;;;;;9.00;2.65;;;;;;;13.63;44.43;103019.13;7398886;19;20359;-54
2023/05/18 10:47:30;;;;;;;8.82;2.65;;;;;;;13.74;43.92;103017.72;7398631;19;20011;-55
2023/05/18 10:49:59;;;;;;;10.02;2.65;;;;;;;13.81;44.42;103020.00;7397304;19;20015;-54
2023/05/18 10:52:30;;;;;;;10.02;2.55;;;;;;;14.09;44.20;103022.09;7398422;19;20067;-54
2023/05/18 10:55:01;;;;;;;8.45;2.25;;;;;;;14.15;43.94;103019.06;7397566;19;20039;-54
2023/05/18 10:57:37;;;;;;;9.70;2.42;;;;;;;14.13;43.94;103014.78;7394341;19;20022;-53
2023/05/18 11:00:09;;;;;;;9.43;2.88;;;;;;;14.10;43.82;103013.13;7395640;19;20087;-53
2023/05/18 11:02:41;;;;;;;11.95;2.22;;;;;;;14.06;43.90;103008.06;7399117;19;20393;-54
2023/05/18 11:05:09;;;;;;;8.20;2.30;;;;;;;14.12;43.81;103007.75;7397454;19;20026;-55
2023/05/18 11:07:37;;;;;;;14.25;3.28;;;;;;;14.08;43.46;103004.38;7397810;19;20022;-55
2023/05/18 11:10:09;;;;;;;10.68;2.63;;;;;;;14.13;43.25;103002.31;7395999;19;20018;-54
2023/05/18 11:12:38;;;;;;;9.93;2.50;;;;;;;14.22;43.16;103010.78;7397844;19;20014;-52
2023/05/18 11:15:07;;;;;;;8.48;2.80;;;;;;;14.13;42.67;103010.31;7396718;19;20118;-53
2023/05/18 11:17:34;;;;;;;7.95;2.20;;;;;;;14.10;42.57;103009.63;7397409;19;20022;-53
2023/05/18 11:20:07;;;;;;;9.40;2.55;;;;;;;14.12;43.27;103003.28;7393784;19;20103;-54
2023/05/18 11:22:57;;;;;;;9.88;2.60;;;;;;;14.24;43.04;103006.25;7395905;19;20018;-54
2023/05/18 11:25:24;;;;;;;7.28;2.70;;;;;;;14.19;43.38;103008.25;7393767;19;20014;-54
2023/05/18 11:27:54;;;;;;;6.90;2.35;;;;;;;14.02;43.42;103003.84;7396375;19;20499;-54
2023/05/18 11:30:27;;;;;;;5.97;2.40;;;;;;;13.99;43.29;103002.19;7392634;19;20014;-52
2023/05/18 11:33:08;;;;;;;10.75;3.00;;;;;;;14.00;43.32;103005.69;7393540;19;20056;-53